sensor_id;sensor_type;location;lat;lon;timestamp;temperature;humidity
73643;DHT22;61938;48.652;9.292;2022-10-16T00:01:27;14.80;99.90
73643;DHT22;61938;48.652;9.292;2022-10-16T00:03:52;14.90;99.90
73643;DHT22;61938;48.652;9.292;2022-10-16T00:06:20;14.80;99.90
73643;DHT22;61938;48.652;9.292;2022-10-16T00:08:46;14.80;99.90
73643;DHT22;61938;48.652;9.292;2022-10-16T00:11:16;14.70;99.90
73643;DHT22;61938;48.652;9.292;2022-10-16T00:13:43;14.70;99.90
73643;DHT22;61938;48.652;9.292;2022-10-16T00:16:11;14.70;99.90
73643;DHT22;61938;48.652;9.292;2022-10-16T00:18:37;14.60;99.90
73643;DHT22;61938;48.652;9.292;2022-10-16T00:21:09;14.60;99.90
73643;DHT22;61938;48.652;9.292;2022-10-16T00:23:35;14.50;99.90
73643;DHT22;61938;48.652;9.292;2022-10-16T00:26:03;14.50;99.90
73643;DHT22;61938;48.652;9.292;2022-10-16T00:28:29;14.50;99.90
73643;DHT22;61938;48.652;9.292;2022-10-16T00:30:55;14.50;99.90
73643;DHT22;61938;48.652;9.292;2022-10-16T00:33:21;14.40;99.90
73643;DHT22;61938;48.652;9.292;2022-10-16T00:35:46;14.40;99.90
73643;DHT22;61938;48.652;9.292;2022-10-16T00:38:12;14.30;99.90
73643;DHT22;61938;48.652;9.292;2022-10-16T00:40:38;14.30;99.90
73643;DHT22;61938;48.652;9.292;2022-10-16T00:43:52;14.30;99.90
73643;DHT22;61938;48.652;9.292;2022-10-16T00:45:59;14.20;99.90
73643;DHT22;61938;48.652;9.292;2022-10-16T00:48:25;14.20;99.90
73643;DHT22;61938;48.652;9.292;2022-10-16T00:50:52;14.70;99.90
73643;DHT22;61938;48.652;9.292;2022-10-16T00:53:17;14.10;99.90
73643;DHT22;61938;48.652;9.292;2022-10-16T00:55:43;14.10;99.90
73643;DHT22;61938;48.652;9.292;2022-10-16T00:58:09;14.10;99.90
73643;DHT22;61938;48.652;9.292;2022-10-16T01:00:35;14.10;99.90
73643;DHT22;61938;48.652;9.292;2022-10-16T01:03:02;14.10;99.90
73643;DHT22;61938;48.652;9.292;2022-10-16T01:05:38;14.10;99.90
73643;DHT22;61938;48.652;9.292;2022-10-16T01:08:13;14.00;99.90
73643;DHT22;61938;48.652;9.292;2022-10-16T01:10:54;13.90;99.90
73643;DHT22;61938;48.652;9.292;2022-10-16T01:13:27;13.90;99.90
73643;DHT22;61938;48.652;9.292;2022-10-16T01:16:07;13.90;99.90
73643;DHT22;61938;48.652;9.292;2022-10-16T01:21:42;13.80;99.90
73643;DHT22;61938;48.652;9.292;2022-10-16T01:24:37;13.70;99.90
73643;DHT22;61938;48.652;9.292;2022-10-16T01:27:10;13.70;99.90
73643;DHT22;61938;48.652;9.292;2022-10-16T01:35:34;13.60;99.90
73643;DHT22;61938;48.652;9.292;2022-10-16T01:38:10;13.70;99.90
73643;DHT22;61938;48.652;9.292;2022-10-16T01:40:39;13.60;99.90
73643;DHT22;61938;48.652;9.292;2022-10-16T01:43:12;13.60;99.90
73643;DHT22;61938;48.652;9.292;2022-10-16T01:45:40;13.60;99.90
73643;DHT22;61938;48.652;9.292;2022-10-16T01:48:07;13.60;99.90
73643;DHT22;61938;48.652;9.292;2022-10-16T01:50:38;13.60;99.90
73643;DHT22;61938;48.652;9.292;2022-10-16T01:53:05;13.50;99.90
73643;DHT22;61938;48.652;9.292;2022-10-16T01:55:37;13.70;99.90
73643;DHT22;61938;48.652;9.292;2022-10-16T01:58:05;13.50;99.90
73643;DHT22;61938;48.652;9.292;2022-10-16T02:00:32;13.50;99.90
73643;DHT22;61938;48.652;9.292;2022-10-16T02:03:01;13.50;99.90
73643;DHT22;61938;48.652;9.292;2022-10-16T02:05:44;13.50;99.90
73643;DHT22;61938;48.652;9.292;2022-10-16T02:08:10;13.50;99.90
73643;DHT22;61938;48.652;9.292;2022-10-16T02:10:37;13.50;99.90
73643;DHT22;61938;48.652;9.292;2022-10-16T02:13:10;13.60;99.90
73643;DHT22;61938;48.652;9.292;2022-10-16T02:15:36;14.10;99.90
73643;DHT22;61938;48.652;9.292;2022-10-16T02:18:04;13.60;99.90
73643;DHT22;61938;48.652;9.292;2022-10-16T02:20:34;13.60;99.90
73643;DHT22;61938;48.652;9.292;2022-10-16T02:23:02;13.60;99.90
73643;DHT22;61938;48.652;9.292;2022-10-16T02:25:34;13.60;99.90
73643;DHT22;61938;48.652;9.292;2022-10-16T02:28:07;13.60;99.90
73643;DHT22;61938;48.652;9.292;2022-10-16T02:33:13;13.60;99.90
73643;DHT22;61938;48.652;9.292;2022-10-16T02:35:40;13.60;99.90
73643;DHT22;61938;48.652;9.292;2022-10-16T02:38:08;13.60;99.90
73643;DHT22;61938;48.652;9.292;2022-10-16T02:40:34;13.70;99.90
73643;DHT22;61938;48.652;9.292;2022-10-16T02:42:59;13.60;99.90
73643;DHT22;61938;48.652;9.292;2022-10-16T02:45:25;13.60;99.90
73643;DHT22;61938;48.652;9.292;2022-10-16T02:47:51;13.60;99.90
73643;DHT22;61938;48.652;9.292;2022-10-16T02:50:17;13.70;99.90
73643;DHT22;61938;48.652;9.292;2022-10-16T02:52:43;13.70;99.90
73643;DHT22;61938;48.652;9.292;2022-10-16T02:55:08;13.70;99.90
73643;DHT22;61938;48.652;9.292;2022-10-16T02:57:34;13.70;99.90
73643;DHT22;61938;48.652;9.292;2022-10-16T03:00:05;13.60;99.90
73643;DHT22;61938;48.652;9.292;2022-10-16T03:02:31;13.60;99.90
73643;DHT22;61938;48.652;9.292;2022-10-16T03:04:57;13.60;99.90
73643;DHT22;61938;48.652;9.292;2022-10-16T03:07:22;13.70;99.90
73643;DHT22;61938;48.652;9.292;2022-10-16T03:09:48;13.70;99.90
73643;DHT22;61938;48.652;9.292;2022-10-16T03:12:13;13.70;99.90
73643;DHT22;61938;48.652;9.292;2022-10-16T03:14:39;13.70;99.90
73643;DHT22;61938;48.652;9.292;2022-10-16T03:17:05;13.60;99.90
73643;DHT22;61938;48.652;9.292;2022-10-16T03:19:31;13.60;99.90
73643;DHT22;61938;48.652;9.292;2022-10-16T03:21:56;13.60;99.90
73643;DHT22;61938;48.652;9.292;2022-10-16T03:24:22;13.50;99.90
73643;DHT22;61938;48.652;9.292;2022-10-16T03:26:48;13.50;99.90
73643;DHT22;61938;48.652;9.292;2022-10-16T03:29:13;13.50;99.90
73643;DHT22;61938;48.652;9.292;2022-10-16T03:31:39;13.50;99.90
73643;DHT22;61938;48.652;9.292;2022-10-16T03:34:04;13.50;99.90
73643;DHT22;61938;48.652;9.292;2022-10-16T03:36:30;14.70;99.90
73643;DHT22;61938;48.652;9.292;2022-10-16T03:38:55;13.50;99.90
73643;DHT22;61938;48.652;9.292;2022-10-16T03:41:21;13.50;99.90
73643;DHT22;61938;48.652;9.292;2022-10-16T03:43:46;13.50;99.90
73643;DHT22;61938;48.652;9.292;2022-10-16T03:46:12;13.50;99.90
73643;DHT22;61938;48.652;9.292;2022-10-16T03:48:37;13.50;99.90
73643;DHT22;61938;48.652;9.292;2022-10-16T03:51:03;13.60;99.90
73643;DHT22;61938;48.652;9.292;2022-10-16T03:53:28;13.60;99.90
73643;DHT22;61938;48.652;9.292;2022-10-16T03:55:54;13.60;99.90
73643;DHT22;61938;48.652;9.292;2022-10-16T03:58:19;13.60;99.90
73643;DHT22;61938;48.652;9.292;2022-10-16T04:00:45;13.60;99.90
73643;DHT22;61938;48.652;9.292;2022-10-16T04:03:13;13.60;99.90
73643;DHT22;61938;48.652;9.292;2022-10-16T04:05:39;13.60;99.90
73643;DHT22;61938;48.652;9.292;2022-10-16T04:08:05;13.60;99.90
73643;DHT22;61938;48.652;9.292;2022-10-16T04:10:31;13.50;99.90
73643;DHT22;61938;48.652;9.292;2022-10-16T04:12:56;13.50;99.90
73643;DHT22;61938;48.652;9.292;2022-10-16T04:15:23;13.50;99.90
73643;DHT22;61938;48.652;9.292;2022-10-16T04:17:50;13.50;99.90
73643;DHT22;61938;48.652;9.292;2022-10-16T04:20:16;13.40;99.90
73643;DHT22;61938;48.652;9.292;2022-10-16T04:22:41;13.40;99.90
73643;DHT22;61938;48.652;9.292;2022-10-16T04:25:07;13.40;99.90
73643;DHT22;61938;48.652;9.292;2022-10-16T04:27:33;13.40;99.90
73643;DHT22;61938;48.652;9.292;2022-10-16T04:29:59;13.40;99.90
73643;DHT22;61938;48.652;9.292;2022-10-16T04:32:25;13.40;99.90
73643;DHT22;61938;48.652;9.292;2022-10-16T04:34:50;13.30;99.90
73643;DHT22;61938;48.652;9.292;2022-10-16T04:37:16;13.40;99.90
73643;DHT22;61938;48.652;9.292;2022-10-16T04:39:41;13.40;99.90
73643;DHT22;61938;48.652;9.292;2022-10-16T04:42:07;13.40;99.90
73643;DHT22;61938;48.652;9.292;2022-10-16T04:44:32;13.40;99.90
73643;DHT22;61938;48.652;9.292;2022-10-16T04:46:58;13.40;99.90
73643;DHT22;61938;48.652;9.292;2022-10-16T04:49:23;13.60;99.90
73643;DHT22;61938;48.652;9.292;2022-10-16T04:51:49;13.40;99.90
73643;DHT22;61938;48.652;9.292;2022-10-16T04:54:14;13.40;99.90
73643;DHT22;61938;48.652;9.292;2022-10-16T04:56:40;13.40;99.90
73643;DHT22;61938;48.652;9.292;2022-10-16T04:59:09;13.40;99.90
73643;DHT22;61938;48.652;9.292;2022-10-16T05:01:35;13.40;99.90
73643;DHT22;61938;48.652;9.292;2022-10-16T05:04:01;13.40;99.90
73643;DHT22;61938;48.652;9.292;2022-10-16T05:06:26;13.40;99.90
73643;DHT22;61938;48.652;9.292;2022-10-16T05:08:52;13.40;99.90
73643;DHT22;61938;48.652;9.292;2022-10-16T05:11:17;13.40;99.90
73643;DHT22;61938;48.652;9.292;2022-10-16T05:13:43;13.40;99.90
73643;DHT22;61938;48.652;9.292;2022-10-16T05:16:08;13.40;99.90
73643;DHT22;61938;48.652;9.292;2022-10-16T05:18:34;13.40;99.90
73643;DHT22;61938;48.652;9.292;2022-10-16T05:20:59;13.40;99.90
73643;DHT22;61938;48.652;9.292;2022-10-16T05:23:25;13.40;99.90
73643;DHT22;61938;48.652;9.292;2022-10-16T05:25:55;13.40;99.90
73643;DHT22;61938;48.652;9.292;2022-10-16T05:28:27;13.40;99.90
73643;DHT22;61938;48.652;9.292;2022-10-16T05:30:53;13.40;99.90
73643;DHT22;61938;48.652;9.292;2022-10-16T05:33:23;13.40;99.90
73643;DHT22;61938;48.652;9.292;2022-10-16T05:35:49;13.40;99.90
73643;DHT22;61938;48.652;9.292;2022-10-16T05:38:18;13.30;99.90
73643;DHT22;61938;48.652;9.292;2022-10-16T05:40:51;13.30;99.90
73643;DHT22;61938;48.652;9.292;2022-10-16T05:43:17;13.30;99.90
73643;DHT22;61938;48.652;9.292;2022-10-16T05:45:43;13.20;99.90
73643;DHT22;61938;48.652;9.292;2022-10-16T05:48:09;13.20;99.90
73643;DHT22;61938;48.652;9.292;2022-10-16T05:50:34;15.00;99.90
73643;DHT22;61938;48.652;9.292;2022-10-16T05:53:00;13.20;99.90
73643;DHT22;61938;48.652;9.292;2022-10-16T05:55:25;13.20;99.90
73643;DHT22;61938;48.652;9.292;2022-10-16T05:57:54;13.10;99.90
73643;DHT22;61938;48.652;9.292;2022-10-16T06:00:20;13.10;99.90
73643;DHT22;61938;48.652;9.292;2022-10-16T06:02:45;13.10;99.90
73643;DHT22;61938;48.652;9.292;2022-10-16T06:05:11;13.10;99.90
73643;DHT22;61938;48.652;9.292;2022-10-16T06:07:36;13.10;99.90
73643;DHT22;61938;48.652;9.292;2022-10-16T06:10:03;13.10;99.90
73643;DHT22;61938;48.652;9.292;2022-10-16T06:12:29;13.10;99.90
73643;DHT22;61938;48.652;9.292;2022-10-16T06:14:55;13.10;99.90
73643;DHT22;61938;48.652;9.292;2022-10-16T06:17:20;13.10;99.90
73643;DHT22;61938;48.652;9.292;2022-10-16T06:19:46;13.20;99.90
73643;DHT22;61938;48.652;9.292;2022-10-16T06:22:11;13.20;99.90
73643;DHT22;61938;48.652;9.292;2022-10-16T06:24:37;13.20;99.90
73643;DHT22;61938;48.652;9.292;2022-10-16T06:27:03;13.30;99.90
73643;DHT22;61938;48.652;9.292;2022-10-16T06:29:29;13.40;99.90
73643;DHT22;61938;48.652;9.292;2022-10-16T06:31:55;13.80;99.90
73643;DHT22;61938;48.652;9.292;2022-10-16T06:34:20;15.80;99.90
73643;DHT22;61938;48.652;9.292;2022-10-16T06:36:46;14.00;99.90
73643;DHT22;61938;48.652;9.292;2022-10-16T06:39:11;14.00;99.90
73643;DHT22;61938;48.652;9.292;2022-10-16T06:41:37;14.00;99.90
73643;DHT22;61938;48.652;9.292;2022-10-16T06:44:06;14.00;99.90
73643;DHT22;61938;48.652;9.292;2022-10-16T06:46:33;14.00;99.90
73643;DHT22;61938;48.652;9.292;2022-10-16T06:48:58;14.00;99.90
73643;DHT22;61938;48.652;9.292;2022-10-16T06:51:24;14.10;99.90
73643;DHT22;61938;48.652;9.292;2022-10-16T06:53:52;14.20;99.90
73643;DHT22;61938;48.652;9.292;2022-10-16T06:56:24;14.30;99.90
73643;DHT22;61938;48.652;9.292;2022-10-16T06:58:50;14.30;99.90
73643;DHT22;61938;48.652;9.292;2022-10-16T07:01:18;14.30;99.90
73643;DHT22;61938;48.652;9.292;2022-10-16T07:03:45;14.40;99.90
73643;DHT22;61938;48.652;9.292;2022-10-16T07:06:15;14.50;99.90
73643;DHT22;61938;48.652;9.292;2022-10-16T07:08:43;14.50;99.90
73643;DHT22;61938;48.652;9.292;2022-10-16T07:11:14;14.40;99.90
73643;DHT22;61938;48.652;9.292;2022-10-16T07:13:41;14.50;99.90
73643;DHT22;61938;48.652;9.292;2022-10-16T07:16:12;14.50;99.90
73643;DHT22;61938;48.652;9.292;2022-10-16T07:18:39;14.60;99.90
73643;DHT22;61938;48.652;9.292;2022-10-16T07:21:06;14.60;99.90
73643;DHT22;61938;48.652;9.292;2022-10-16T07:23:32;14.70;99.90
73643;DHT22;61938;48.652;9.292;2022-10-16T07:25:58;14.80;99.90
73643;DHT22;61938;48.652;9.292;2022-10-16T07:28:23;14.80;99.90
73643;DHT22;61938;48.652;9.292;2022-10-16T07:30:49;14.80;99.90
73643;DHT22;61938;48.652;9.292;2022-10-16T07:33:15;14.80;99.90
73643;DHT22;61938;48.652;9.292;2022-10-16T07:35:51;14.90;99.90
73643;DHT22;61938;48.652;9.292;2022-10-16T07:38:17;14.90;99.90
73643;DHT22;61938;48.652;9.292;2022-10-16T07:40:43;14.90;99.90
73643;DHT22;61938;48.652;9.292;2022-10-16T07:43:08;14.90;99.90
73643;DHT22;61938;48.652;9.292;2022-10-16T07:45:34;14.90;99.90
73643;DHT22;61938;48.652;9.292;2022-10-16T07:47:59;15.00;99.90
73643;DHT22;61938;48.652;9.292;2022-10-16T07:50:25;16.90;99.90
73643;DHT22;61938;48.652;9.292;2022-10-16T07:52:50;15.00;99.90
73643;DHT22;61938;48.652;9.292;2022-10-16T07:55:16;15.00;99.90
73643;DHT22;61938;48.652;9.292;2022-10-16T07:57:41;15.00;99.90
73643;DHT22;61938;48.652;9.292;2022-10-16T08:00:07;15.10;99.90
73643;DHT22;61938;48.652;9.292;2022-10-16T08:02:39;15.10;99.90
73643;DHT22;61938;48.652;9.292;2022-10-16T08:05:05;15.20;99.90
73643;DHT22;61938;48.652;9.292;2022-10-16T08:07:31;15.20;99.90
73643;DHT22;61938;48.652;9.292;2022-10-16T08:09:56;15.20;99.90
73643;DHT22;61938;48.652;9.292;2022-10-16T08:12:23;15.30;99.90
73643;DHT22;61938;48.652;9.292;2022-10-16T08:14:49;16.60;99.90
73643;DHT22;61938;48.652;9.292;2022-10-16T08:17:15;15.30;99.90
73643;DHT22;61938;48.652;9.292;2022-10-16T08:19:44;15.40;99.90
73643;DHT22;61938;48.652;9.292;2022-10-16T08:22:10;15.40;99.90
73643;DHT22;61938;48.652;9.292;2022-10-16T08:24:35;15.50;99.90
73643;DHT22;61938;48.652;9.292;2022-10-16T08:27:02;15.60;99.90
73643;DHT22;61938;48.652;9.292;2022-10-16T08:29:28;15.70;99.90
73643;DHT22;61938;48.652;9.292;2022-10-16T08:31:53;15.80;99.90
73643;DHT22;61938;48.652;9.292;2022-10-16T08:34:19;15.90;99.90
73643;DHT22;61938;48.652;9.292;2022-10-16T08:36:44;16.00;99.90
73643;DHT22;61938;48.652;9.292;2022-10-16T08:39:10;16.10;99.90
73643;DHT22;61938;48.652;9.292;2022-10-16T08:45:15;16.50;99.90
73643;DHT22;61938;48.652;9.292;2022-10-16T08:50:31;16.80;99.90
73643;DHT22;61938;48.652;9.292;2022-10-16T08:52:58;17.20;99.90
73643;DHT22;61938;48.652;9.292;2022-10-16T08:55:55;16.90;99.90
73643;DHT22;61938;48.652;9.292;2022-10-16T08:58:23;16.90;99.90
73643;DHT22;61938;48.652;9.292;2022-10-16T09:00:57;17.00;99.90
73643;DHT22;61938;48.652;9.292;2022-10-16T09:03:51;16.90;99.90
73643;DHT22;61938;48.652;9.292;2022-10-16T09:17:43;17.40;99.90
73643;DHT22;61938;48.652;9.292;2022-10-16T09:20:45;17.40;99.90
73643;DHT22;61938;48.652;9.292;2022-10-16T09:23:28;17.40;99.90
73643;DHT22;61938;48.652;9.292;2022-10-16T09:25:56;17.50;99.90
73643;DHT22;61938;48.652;9.292;2022-10-16T09:28:23;17.50;99.90
73643;DHT22;61938;48.652;9.292;2022-10-16T09:30:49;17.50;99.90
73643;DHT22;61938;48.652;9.292;2022-10-16T09:33:17;17.50;99.90
73643;DHT22;61938;48.652;9.292;2022-10-16T09:35:48;17.60;99.90
73643;DHT22;61938;48.652;9.292;2022-10-16T09:38:26;17.80;99.90
73643;DHT22;61938;48.652;9.292;2022-10-16T09:40:53;18.20;99.90
73643;DHT22;61938;48.652;9.292;2022-10-16T09:43:25;18.40;99.90
73643;DHT22;61938;48.652;9.292;2022-10-16T09:46:02;18.60;99.90
73643;DHT22;61938;48.652;9.292;2022-10-16T09:48:34;19.10;99.90
73643;DHT22;61938;48.652;9.292;2022-10-16T09:51:03;19.20;99.90
73643;DHT22;61938;48.652;9.292;2022-10-16T09:53:43;19.40;99.90
73643;DHT22;61938;48.652;9.292;2022-10-16T09:56:22;19.50;99.90
73643;DHT22;61938;48.652;9.292;2022-10-16T09:58:53;19.50;99.90
73643;DHT22;61938;48.652;9.292;2022-10-16T10:01:19;19.60;99.90
73643;DHT22;61938;48.652;9.292;2022-10-16T10:03:46;19.40;99.90
73643;DHT22;61938;48.652;9.292;2022-10-16T10:06:27;19.40;99.90
73643;DHT22;61938;48.652;9.292;2022-10-16T10:08:58;19.40;99.90
73643;DHT22;61938;48.652;9.292;2022-10-16T10:11:44;19.30;99.90
73643;DHT22;61938;48.652;9.292;2022-10-16T10:14:18;19.40;99.90
73643;DHT22;61938;48.652;9.292;2022-10-16T10:16:45;19.70;99.90
73643;DHT22;61938;48.652;9.292;2022-10-16T10:19:22;20.20;99.90
73643;DHT22;61938;48.652;9.292;2022-10-16T10:21:50;20.60;99.90
73643;DHT22;61938;48.652;9.292;2022-10-16T10:24:18;21.20;99.90
73643;DHT22;61938;48.652;9.292;2022-10-16T10:27:02;21.50;99.90
73643;DHT22;61938;48.652;9.292;2022-10-16T10:29:44;21.80;99.90
73643;DHT22;61938;48.652;9.292;2022-10-16T10:32:41;22.30;99.90
73643;DHT22;61938;48.652;9.292;2022-10-16T10:35:18;22.60;99.90
73643;DHT22;61938;48.652;9.292;2022-10-16T10:37:55;22.90;99.90
73643;DHT22;61938;48.652;9.292;2022-10-16T10:40:43;23.00;99.90
73643;DHT22;61938;48.652;9.292;2022-10-16T10:43:20;22.80;99.90
73643;DHT22;61938;48.652;9.292;2022-10-16T10:45:49;22.60;99.90
73643;DHT22;61938;48.652;9.292;2022-10-16T10:48:43;22.80;99.90
73643;DHT22;61938;48.652;9.292;2022-10-16T10:51:19;23.10;99.90
73643;DHT22;61938;48.652;9.292;2022-10-16T10:54:01;23.30;99.90
73643;DHT22;61938;48.652;9.292;2022-10-16T10:59:43;23.30;99.90
73643;DHT22;61938;48.652;9.292;2022-10-16T11:02:16;23.50;99.90
73643;DHT22;61938;48.652;9.292;2022-10-16T11:07:31;23.80;99.90
73643;DHT22;61938;48.652;9.292;2022-10-16T11:10:04;24.00;99.90
73643;DHT22;61938;48.652;9.292;2022-10-16T11:12:38;24.60;99.90
73643;DHT22;61938;48.652;9.292;2022-10-16T11:15:20;24.40;99.90
73643;DHT22;61938;48.652;9.292;2022-10-16T11:17:48;24.60;99.90
73643;DHT22;61938;48.652;9.292;2022-10-16T11:20:25;24.80;99.90
73643;DHT22;61938;48.652;9.292;2022-10-16T11:25:39;24.90;99.90
73643;DHT22;61938;48.652;9.292;2022-10-16T11:28:14;25.00;99.90
73643;DHT22;61938;48.652;9.292;2022-10-16T11:31:08;25.10;99.90
73643;DHT22;61938;48.652;9.292;2022-10-16T11:33:43;25.10;99.90
73643;DHT22;61938;48.652;9.292;2022-10-16T11:36:30;24.70;99.90
73643;DHT22;61938;48.652;9.292;2022-10-16T11:42:21;24.80;99.90
73643;DHT22;61938;48.652;9.292;2022-10-16T11:47:40;24.10;99.90
73643;DHT22;61938;48.652;9.292;2022-10-16T11:50:39;25.00;99.90
73643;DHT22;61938;48.652;9.292;2022-10-16T11:55:53;25.30;99.90
73643;DHT22;61938;48.652;9.292;2022-10-16T11:58:32;25.40;99.90
73643;DHT22;61938;48.652;9.292;2022-10-16T12:03:49;25.40;99.90
73643;DHT22;61938;48.652;9.292;2022-10-16T12:06:37;25.60;99.90
73643;DHT22;61938;48.652;9.292;2022-10-16T12:09:15;25.70;99.90
73643;DHT22;61938;48.652;9.292;2022-10-16T12:11:45;25.80;99.90
73643;DHT22;61938;48.652;9.292;2022-10-16T12:16:38;25.90;99.90
73643;DHT22;61938;48.652;9.292;2022-10-16T12:19:15;26.00;99.90
73643;DHT22;61938;48.652;9.292;2022-10-16T12:21:43;25.70;99.90
73643;DHT22;61938;48.652;9.292;2022-10-16T12:24:42;26.00;99.90
73643;DHT22;61938;48.652;9.292;2022-10-16T12:27:30;26.00;99.90
73643;DHT22;61938;48.652;9.292;2022-10-16T12:30:01;25.80;99.90
73643;DHT22;61938;48.652;9.292;2022-10-16T12:32:33;25.80;99.90
73643;DHT22;61938;48.652;9.292;2022-10-16T12:35:01;25.90;99.90
73643;DHT22;61938;48.652;9.292;2022-10-16T12:37:35;26.00;99.90
73643;DHT22;61938;48.652;9.292;2022-10-16T12:40:24;26.00;99.90
73643;DHT22;61938;48.652;9.292;2022-10-16T12:42:51;25.90;99.90
73643;DHT22;61938;48.652;9.292;2022-10-16T12:45:30;25.50;99.90
73643;DHT22;61938;48.652;9.292;2022-10-16T12:47:58;25.50;99.90
73643;DHT22;61938;48.652;9.292;2022-10-16T12:50:31;25.40;99.90
73643;DHT22;61938;48.652;9.292;2022-10-16T12:52:58;25.50;99.90
73643;DHT22;61938;48.652;9.292;2022-10-16T12:55:24;25.50;99.90
73643;DHT22;61938;48.652;9.292;2022-10-16T13:01:06;25.40;99.90
73643;DHT22;61938;48.652;9.292;2022-10-16T13:09:06;24.60;99.90
73643;DHT22;61938;48.652;9.292;2022-10-16T13:12:07;24.30;99.90
73643;DHT22;61938;48.652;9.292;2022-10-16T13:14:58;24.20;99.90
73643;DHT22;61938;48.652;9.292;2022-10-16T13:17:59;24.20;99.90
73643;DHT22;61938;48.652;9.292;2022-10-16T13:20:56;24.40;99.90
73643;DHT22;61938;48.652;9.292;2022-10-16T13:23:33;24.50;99.90
73643;DHT22;61938;48.652;9.292;2022-10-16T13:28:46;24.60;99.90
73643;DHT22;61938;48.652;9.292;2022-10-16T13:31:24;24.50;99.90
73643;DHT22;61938;48.652;9.292;2022-10-16T13:33:52;24.40;99.90
73643;DHT22;61938;48.652;9.292;2022-10-16T13:36:28;24.30;99.90
73643;DHT22;61938;48.652;9.292;2022-10-16T13:39:13;24.20;99.90
73643;DHT22;61938;48.652;9.292;2022-10-16T13:41:39;24.20;99.90
73643;DHT22;61938;48.652;9.292;2022-10-16T13:44:14;24.20;99.90
73643;DHT22;61938;48.652;9.292;2022-10-16T13:46:40;24.20;99.90
73643;DHT22;61938;48.652;9.292;2022-10-16T13:49:16;24.20;99.90
73643;DHT22;61938;48.652;9.292;2022-10-16T13:51:57;24.20;99.90
73643;DHT22;61938;48.652;9.292;2022-10-16T13:54:24;24.60;99.90
73643;DHT22;61938;48.652;9.292;2022-10-16T13:56:50;23.80;99.90
73643;DHT22;61938;48.652;9.292;2022-10-16T13:59:24;23.80;99.90
73643;DHT22;61938;48.652;9.292;2022-10-16T14:01:53;23.70;99.90
73643;DHT22;61938;48.652;9.292;2022-10-16T14:04:19;23.60;99.90
73643;DHT22;61938;48.652;9.292;2022-10-16T14:06:46;23.60;99.90
73643;DHT22;61938;48.652;9.292;2022-10-16T14:09:26;23.90;99.90
73643;DHT22;61938;48.652;9.292;2022-10-16T14:12:07;23.50;99.90
73643;DHT22;61938;48.652;9.292;2022-10-16T14:14:48;23.50;99.90
73643;DHT22;61938;48.652;9.292;2022-10-16T14:17:29;23.50;99.90
73643;DHT22;61938;48.652;9.292;2022-10-16T14:19:57;23.60;99.90
73643;DHT22;61938;48.652;9.292;2022-10-16T14:24:51;23.50;99.90
73643;DHT22;61938;48.652;9.292;2022-10-16T14:27:30;23.50;99.90
73643;DHT22;61938;48.652;9.292;2022-10-16T14:30:21;23.50;99.90
73643;DHT22;61938;48.652;9.292;2022-10-16T14:35:35;23.40;99.90
73643;DHT22;61938;48.652;9.292;2022-10-16T14:38:03;23.20;99.90
73643;DHT22;61938;48.652;9.292;2022-10-16T14:40:34;23.20;99.90
73643;DHT22;61938;48.652;9.292;2022-10-16T14:43:01;23.30;99.90
73643;DHT22;61938;48.652;9.292;2022-10-16T14:45:29;23.20;99.90
73643;DHT22;61938;48.652;9.292;2022-10-16T14:47:58;23.20;99.90
73643;DHT22;61938;48.652;9.292;2022-10-16T14:50:24;23.00;99.90
73643;DHT22;61938;48.652;9.292;2022-10-16T14:52:50;23.10;99.90
73643;DHT22;61938;48.652;9.292;2022-10-16T14:55:15;23.00;99.90
73643;DHT22;61938;48.652;9.292;2022-10-16T14:57:42;23.00;99.90
73643;DHT22;61938;48.652;9.292;2022-10-16T15:00:19;23.00;99.90
73643;DHT22;61938;48.652;9.292;2022-10-16T15:02:46;22.90;99.90
73643;DHT22;61938;48.652;9.292;2022-10-16T15:05:21;22.90;99.90
73643;DHT22;61938;48.652;9.292;2022-10-16T15:07:47;23.00;99.90
73643;DHT22;61938;48.652;9.292;2022-10-16T15:10:16;22.90;99.90
73643;DHT22;61938;48.652;9.292;2022-10-16T15:12:44;22.80;99.90
73643;DHT22;61938;48.652;9.292;2022-10-16T15:15:34;22.70;99.90
73643;DHT22;61938;48.652;9.292;2022-10-16T15:18:00;22.70;99.90
73643;DHT22;61938;48.652;9.292;2022-10-16T15:20:34;22.60;99.90
73643;DHT22;61938;48.652;9.292;2022-10-16T15:23:06;22.60;99.90
73643;DHT22;61938;48.652;9.292;2022-10-16T15:25:38;22.60;99.90
73643;DHT22;61938;48.652;9.292;2022-10-16T15:28:08;22.50;99.90
73643;DHT22;61938;48.652;9.292;2022-10-16T15:30:34;22.50;99.90
73643;DHT22;61938;48.652;9.292;2022-10-16T15:33:02;22.40;99.90
73643;DHT22;61938;48.652;9.292;2022-10-16T15:35:28;22.40;99.90
73643;DHT22;61938;48.652;9.292;2022-10-16T15:37:54;22.40;99.90
73643;DHT22;61938;48.652;9.292;2022-10-16T15:40:20;22.20;99.90
73643;DHT22;61938;48.652;9.292;2022-10-16T15:42:46;22.10;99.90
73643;DHT22;61938;48.652;9.292;2022-10-16T15:45:12;22.10;99.90
73643;DHT22;61938;48.652;9.292;2022-10-16T15:47:38;22.00;99.90
73643;DHT22;61938;48.652;9.292;2022-10-16T15:50:06;21.90;99.90
73643;DHT22;61938;48.652;9.292;2022-10-16T15:52:31;21.80;99.90
73643;DHT22;61938;48.652;9.292;2022-10-16T15:54:58;21.70;99.90
73643;DHT22;61938;48.652;9.292;2022-10-16T15:57:23;21.60;99.90
73643;DHT22;61938;48.652;9.292;2022-10-16T15:59:49;21.50;99.90
73643;DHT22;61938;48.652;9.292;2022-10-16T16:02:15;21.50;99.90
73643;DHT22;61938;48.652;9.292;2022-10-16T16:04:41;21.40;99.90
73643;DHT22;61938;48.652;9.292;2022-10-16T16:07:06;21.30;99.90
73643;DHT22;61938;48.652;9.292;2022-10-16T16:09:35;21.20;99.90
73643;DHT22;61938;48.652;9.292;2022-10-16T16:12:00;21.20;99.90
73643;DHT22;61938;48.652;9.292;2022-10-16T16:14:27;21.10;99.90
73643;DHT22;61938;48.652;9.292;2022-10-16T16:16:56;21.10;99.90
73643;DHT22;61938;48.652;9.292;2022-10-16T16:19:22;21.00;99.90
73643;DHT22;61938;48.652;9.292;2022-10-16T16:21:48;20.90;99.90
73643;DHT22;61938;48.652;9.292;2022-10-16T16:24:14;20.80;99.90
73643;DHT22;61938;48.652;9.292;2022-10-16T16:26:40;20.70;99.90
73643;DHT22;61938;48.652;9.292;2022-10-16T16:29:11;20.60;99.90
73643;DHT22;61938;48.652;9.292;2022-10-16T16:31:39;20.50;99.90
73643;DHT22;61938;48.652;9.292;2022-10-16T16:34:04;20.40;99.90
73643;DHT22;61938;48.652;9.292;2022-10-16T16:36:31;20.20;99.90
73643;DHT22;61938;48.652;9.292;2022-10-16T16:38:57;19.90;99.90
73643;DHT22;61938;48.652;9.292;2022-10-16T16:41:24;19.80;99.90
73643;DHT22;61938;48.652;9.292;2022-10-16T16:43:51;19.80;99.90
73643;DHT22;61938;48.652;9.292;2022-10-16T16:46:18;19.70;99.90
73643;DHT22;61938;48.652;9.292;2022-10-16T16:48:45;19.60;99.90
73643;DHT22;61938;48.652;9.292;2022-10-16T16:51:16;19.50;99.90
73643;DHT22;61938;48.652;9.292;2022-10-16T16:53:44;19.40;99.90
73643;DHT22;61938;48.652;9.292;2022-10-16T16:56:09;19.30;99.90